sensor_id;sensor_type;location;lat;lon;timestamp;temperature;humidity
9151;DHT22;4610;50.006;7.490;2023-04-24T00:00:58;10.00;99.90
9151;DHT22;4610;50.006;7.490;2023-04-24T00:03:27;10.00;99.90
9151;DHT22;4610;50.006;7.490;2023-04-24T00:05:54;10.00;99.90
9151;DHT22;4610;50.006;7.490;2023-04-24T00:08:21;9.90;99.90
9151;DHT22;4610;50.006;7.490;2023-04-24T00:10:49;9.90;99.90
9151;DHT22;4610;50.006;7.490;2023-04-24T00:13:17;9.90;99.90
9151;DHT22;4610;50.006;7.490;2023-04-24T00:15:44;9.90;99.90
9151;DHT22;4610;50.006;7.490;2023-04-24T00:18:11;9.90;99.90
9151;DHT22;4610;50.006;7.490;2023-04-24T00:20:39;10.00;99.90
9151;DHT22;4610;50.006;7.490;2023-04-24T00:23:06;10.00;99.90
9151;DHT22;4610;50.006;7.490;2023-04-24T00:25:33;10.00;99.90
9151;DHT22;4610;50.006;7.490;2023-04-24T00:27:59;10.00;99.90
9151;DHT22;4610;50.006;7.490;2023-04-24T00:30:26;10.10;99.90
9151;DHT22;4610;50.006;7.490;2023-04-24T00:32:53;10.10;99.90
9151;DHT22;4610;50.006;7.490;2023-04-24T00:35:20;10.10;99.90
9151;DHT22;4610;50.006;7.490;2023-04-24T00:37:48;10.10;99.90
9151;DHT22;4610;50.006;7.490;2023-04-24T00:40:15;10.10;99.90
9151;DHT22;4610;50.006;7.490;2023-04-24T00:42:43;10.10;99.90
9151;DHT22;4610;50.006;7.490;2023-04-24T00:45:10;10.10;99.90
9151;DHT22;4610;50.006;7.490;2023-04-24T00:47:38;10.10;99.90
9151;DHT22;4610;50.006;7.490;2023-04-24T00:50:07;10.10;99.90
9151;DHT22;4610;50.006;7.490;2023-04-24T00:52:34;10.10;99.90
9151;DHT22;4610;50.006;7.490;2023-04-24T00:55:03;10.00;99.90
9151;DHT22;4610;50.006;7.490;2023-04-24T00:57:31;10.00;99.90
9151;DHT22;4610;50.006;7.490;2023-04-24T00:59:58;10.00;99.90
9151;DHT22;4610;50.006;7.490;2023-04-24T01:02:25;10.00;99.90
9151;DHT22;4610;50.006;7.490;2023-04-24T01:04:52;10.00;99.90
9151;DHT22;4610;50.006;7.490;2023-04-24T01:07:20;10.00;99.90
9151;DHT22;4610;50.006;7.490;2023-04-24T01:09:48;10.00;99.90
9151;DHT22;4610;50.006;7.490;2023-04-24T01:12:17;10.00;99.90
9151;DHT22;4610;50.006;7.490;2023-04-24T01:14:45;10.00;99.90
9151;DHT22;4610;50.006;7.490;2023-04-24T01:17:11;9.90;99.90
9151;DHT22;4610;50.006;7.490;2023-04-24T01:19:38;9.80;99.90
9151;DHT22;4610;50.006;7.490;2023-04-24T01:22:10;9.80;99.90
9151;DHT22;4610;50.006;7.490;2023-04-24T01:24:37;9.80;99.90
9151;DHT22;4610;50.006;7.490;2023-04-24T01:27:05;9.80;99.90
9151;DHT22;4610;50.006;7.490;2023-04-24T01:29:32;9.80;99.90
9151;DHT22;4610;50.006;7.490;2023-04-24T01:31:59;9.70;99.90
9151;DHT22;4610;50.006;7.490;2023-04-24T01:34:26;9.70;99.90
9151;DHT22;4610;50.006;7.490;2023-04-24T01:36:53;9.60;99.90
9151;DHT22;4610;50.006;7.490;2023-04-24T01:39:21;9.50;99.90
9151;DHT22;4610;50.006;7.490;2023-04-24T01:41:51;9.50;99.90
9151;DHT22;4610;50.006;7.490;2023-04-24T01:44:18;9.50;99.90
9151;DHT22;4610;50.006;7.490;2023-04-24T01:46:45;9.50;99.90
9151;DHT22;4610;50.006;7.490;2023-04-24T01:49:11;9.60;99.90
9151;DHT22;4610;50.006;7.490;2023-04-24T01:51:38;9.60;99.90
9151;DHT22;4610;50.006;7.490;2023-04-24T01:54:05;9.60;99.90
9151;DHT22;4610;50.006;7.490;2023-04-24T01:56:34;9.50;99.90
9151;DHT22;4610;50.006;7.490;2023-04-24T01:59:02;9.50;99.90
9151;DHT22;4610;50.006;7.490;2023-04-24T02:01:33;9.50;99.90
9151;DHT22;4610;50.006;7.490;2023-04-24T02:04:01;9.60;99.90
9151;DHT22;4610;50.006;7.490;2023-04-24T02:06:28;9.50;99.90
9151;DHT22;4610;50.006;7.490;2023-04-24T02:08:57;9.60;99.90
9151;DHT22;4610;50.006;7.490;2023-04-24T02:11:23;9.60;99.90
9151;DHT22;4610;50.006;7.490;2023-04-24T02:13:52;9.60;99.90
9151;DHT22;4610;50.006;7.490;2023-04-24T02:16:19;9.60;99.90
9151;DHT22;4610;50.006;7.490;2023-04-24T02:18:45;9.50;99.90
9151;DHT22;4610;50.006;7.490;2023-04-24T02:21:12;9.40;99.90
9151;DHT22;4610;50.006;7.490;2023-04-24T02:23:39;9.30;99.90
9151;DHT22;4610;50.006;7.490;2023-04-24T02:26:06;9.30;99.90
9151;DHT22;4610;50.006;7.490;2023-04-24T02:28:33;9.40;99.90
9151;DHT22;4610;50.006;7.490;2023-04-24T02:31:01;9.30;99.90
9151;DHT22;4610;50.006;7.490;2023-04-24T02:33:28;9.30;99.90
9151;DHT22;4610;50.006;7.490;2023-04-24T02:35:54;9.30;99.90
9151;DHT22;4610;50.006;7.490;2023-04-24T02:38:21;9.30;99.90
9151;DHT22;4610;50.006;7.490;2023-04-24T02:40:48;9.30;99.90
9151;DHT22;4610;50.006;7.490;2023-04-24T02:43:15;9.30;99.90
9151;DHT22;4610;50.006;7.490;2023-04-24T02:45:41;9.30;99.90
9151;DHT22;4610;50.006;7.490;2023-04-24T02:48:09;9.30;99.90
9151;DHT22;4610;50.006;7.490;2023-04-24T02:50:36;9.20;99.90
9151;DHT22;4610;50.006;7.490;2023-04-24T02:53:03;9.00;99.90
9151;DHT22;4610;50.006;7.490;2023-04-24T02:55:30;9.00;99.90
9151;DHT22;4610;50.006;7.490;2023-04-24T02:57:57;9.00;99.90
9151;DHT22;4610;50.006;7.490;2023-04-24T03:00:23;8.80;99.90
9151;DHT22;4610;50.006;7.490;2023-04-24T03:02:50;8.70;99.90
9151;DHT22;4610;50.006;7.490;2023-04-24T03:05:18;8.60;99.90
9151;DHT22;4610;50.006;7.490;2023-04-24T03:07:45;8.50;99.90
9151;DHT22;4610;50.006;7.490;2023-04-24T03:10:12;8.50;99.90
9151;DHT22;4610;50.006;7.490;2023-04-24T03:12:39;8.40;99.90
9151;DHT22;4610;50.006;7.490;2023-04-24T03:15:07;8.40;99.90
9151;DHT22;4610;50.006;7.490;2023-04-24T03:17:34;8.30;99.90
9151;DHT22;4610;50.006;7.490;2023-04-24T03:20:00;8.30;99.90
9151;DHT22;4610;50.006;7.490;2023-04-24T03:22:28;8.20;99.90
9151;DHT22;4610;50.006;7.490;2023-04-24T03:24:55;8.10;99.90
9151;DHT22;4610;50.006;7.490;2023-04-24T03:27:22;8.00;99.90
9151;DHT22;4610;50.006;7.490;2023-04-24T03:29:49;8.00;99.90
9151;DHT22;4610;50.006;7.490;2023-04-24T03:32:19;7.90;99.90
9151;DHT22;4610;50.006;7.490;2023-04-24T03:34:46;7.80;99.90
9151;DHT22;4610;50.006;7.490;2023-04-24T03:37:12;7.70;99.90
9151;DHT22;4610;50.006;7.490;2023-04-24T03:39:40;7.50;99.90
9151;DHT22;4610;50.006;7.490;2023-04-24T03:42:07;7.60;99.90
9151;DHT22;4610;50.006;7.490;2023-04-24T03:44:34;7.60;99.90
9151;DHT22;4610;50.006;7.490;2023-04-24T03:47:01;7.60;99.90
9151;DHT22;4610;50.006;7.490;2023-04-24T03:49:28;7.60;99.90
9151;DHT22;4610;50.006;7.490;2023-04-24T03:51:55;7.50;99.90
9151;DHT22;4610;50.006;7.490;2023-04-24T03:54:22;7.50;99.90
9151;DHT22;4610;50.006;7.490;2023-04-24T03:56:50;7.50;99.90
9151;DHT22;4610;50.006;7.490;2023-04-24T03:59:17;7.40;99.90
9151;DHT22;4610;50.006;7.490;2023-04-24T04:01:43;7.40;99.90
9151;DHT22;4610;50.006;7.490;2023-04-24T04:04:11;7.40;99.90
9151;DHT22;4610;50.006;7.490;2023-04-24T04:06:38;7.50;99.90
9151;DHT22;4610;50.006;7.490;2023-04-24T04:09:04;7.50;99.90
9151;DHT22;4610;50.006;7.490;2023-04-24T04:11:32;7.50;99.90
9151;DHT22;4610;50.006;7.490;2023-04-24T04:14:00;7.60;99.90
9151;DHT22;4610;50.006;7.490;2023-04-24T04:16:27;7.60;99.90
9151;DHT22;4610;50.006;7.490;2023-04-24T04:18:54;7.60;99.90
9151;DHT22;4610;50.006;7.490;2023-04-24T04:21:21;7.60;99.90
9151;DHT22;4610;50.006;7.490;2023-04-24T04:23:48;7.40;99.90
9151;DHT22;4610;50.006;7.490;2023-04-24T04:26:14;7.50;99.90
9151;DHT22;4610;50.006;7.490;2023-04-24T04:28:41;7.60;99.90
9151;DHT22;4610;50.006;7.490;2023-04-24T04:31:11;7.70;99.90
9151;DHT22;4610;50.006;7.490;2023-04-24T04:33:38;7.80;99.90
9151;DHT22;4610;50.006;7.490;2023-04-24T04:36:05;7.80;99.90
9151;DHT22;4610;50.006;7.490;2023-04-24T04:38:32;7.80;99.90
9151;DHT22;4610;50.006;7.490;2023-04-24T04:41:00;7.80;99.90
9151;DHT22;4610;50.006;7.490;2023-04-24T04:43:27;7.70;99.90
9151;DHT22;4610;50.006;7.490;2023-04-24T04:45:54;7.60;99.90
9151;DHT22;4610;50.006;7.490;2023-04-24T04:48:22;7.60;99.90
9151;DHT22;4610;50.006;7.490;2023-04-24T04:50:49;7.50;99.90
9151;DHT22;4610;50.006;7.490;2023-04-24T04:53:16;7.50;99.90
9151;DHT22;4610;50.006;7.490;2023-04-24T04:55:43;7.50;99.90
9151;DHT22;4610;50.006;7.490;2023-04-24T04:58:10;7.60;99.90
9151;DHT22;4610;50.006;7.490;2023-04-24T05:00:36;7.50;99.90
9151;DHT22;4610;50.006;7.490;2023-04-24T05:03:03;7.60;99.90
9151;DHT22;4610;50.006;7.490;2023-04-24T05:05:32;7.60;99.90
9151;DHT22;4610;50.006;7.490;2023-04-24T05:07:58;7.60;99.90
9151;DHT22;4610;50.006;7.490;2023-04-24T05:10:25;7.60;99.90
9151;DHT22;4610;50.006;7.490;2023-04-24T05:12:52;7.70;99.90
9151;DHT22;4610;50.006;7.490;2023-04-24T05:15:19;7.70;99.90
9151;DHT22;4610;50.006;7.490;2023-04-24T05:17:45;7.80;99.90
9151;DHT22;4610;50.006;7.490;2023-04-24T05:20:12;7.80;99.90
9151;DHT22;4610;50.006;7.490;2023-04-24T05:22:41;7.80;99.90
9151;DHT22;4610;50.006;7.490;2023-04-24T05:25:08;7.80;99.90
9151;DHT22;4610;50.006;7.490;2023-04-24T05:27:35;7.80;99.90
9151;DHT22;4610;50.006;7.490;2023-04-24T05:30:02;7.80;99.90
9151;DHT22;4610;50.006;7.490;2023-04-24T05:32:30;7.80;99.90
9151;DHT22;4610;50.006;7.490;2023-04-24T05:34:56;7.80;99.90
9151;DHT22;4610;50.006;7.490;2023-04-24T05:37:23;7.80;99.90
9151;DHT22;4610;50.006;7.490;2023-04-24T05:39:51;7.80;99.90
9151;DHT22;4610;50.006;7.490;2023-04-24T05:42:18;7.80;99.90
9151;DHT22;4610;50.006;7.490;2023-04-24T05:44:45;7.80;99.90
9151;DHT22;4610;50.006;7.490;2023-04-24T05:47:12;7.80;99.90
9151;DHT22;4610;50.006;7.490;2023-04-24T05:49:38;7.80;99.90
9151;DHT22;4610;50.006;7.490;2023-04-24T05:52:05;7.90;99.90
9151;DHT22;4610;50.006;7.490;2023-04-24T05:54:34;8.60;99.90
9151;DHT22;4610;50.006;7.490;2023-04-24T05:57:02;9.00;99.90
9151;DHT22;4610;50.006;7.490;2023-04-24T05:59:33;8.80;99.90
9151;DHT22;4610;50.006;7.490;2023-04-24T06:02:00;8.70;99.90
9151;DHT22;4610;50.006;7.490;2023-04-24T06:04:26;8.60;99.90
9151;DHT22;4610;50.006;7.490;2023-04-24T06:06:53;8.60;99.90
9151;DHT22;4610;50.006;7.490;2023-04-24T06:09:21;8.50;99.90
9151;DHT22;4610;50.006;7.490;2023-04-24T06:11:49;8.40;99.90
9151;DHT22;4610;50.006;7.490;2023-04-24T06:14:19;8.40;99.90
9151;DHT22;4610;50.006;7.490;2023-04-24T06:16:46;8.50;99.90
9151;DHT22;4610;50.006;7.490;2023-04-24T06:19:13;8.40;99.90
9151;DHT22;4610;50.006;7.490;2023-04-24T06:21:40;8.40;99.90
9151;DHT22;4610;50.006;7.490;2023-04-24T06:24:07;8.30;99.90
9151;DHT22;4610;50.006;7.490;2023-04-24T06:26:33;8.30;99.90
9151;DHT22;4610;50.006;7.490;2023-04-24T06:29:00;8.40;99.90
9151;DHT22;4610;50.006;7.490;2023-04-24T06:31:28;8.50;99.90
9151;DHT22;4610;50.006;7.490;2023-04-24T06:33:55;8.60;99.90
9151;DHT22;4610;50.006;7.490;2023-04-24T06:36:22;8.70;99.90
9151;DHT22;4610;50.006;7.490;2023-04-24T06:38:49;8.90;99.90
9151;DHT22;4610;50.006;7.490;2023-04-24T06:41:15;9.00;99.90
9151;DHT22;4610;50.006;7.490;2023-04-24T06:43:42;9.10;99.90
9151;DHT22;4610;50.006;7.490;2023-04-24T06:46:10;9.20;99.90
9151;DHT22;4610;50.006;7.490;2023-04-24T06:48:39;9.70;99.90
9151;DHT22;4610;50.006;7.490;2023-04-24T06:51:05;9.80;99.90
9151;DHT22;4610;50.006;7.490;2023-04-24T06:53:32;9.80;99.90
9151;DHT22;4610;50.006;7.490;2023-04-24T06:55:59;9.70;99.90
9151;DHT22;4610;50.006;7.490;2023-04-24T06:58:26;9.60;99.90
9151;DHT22;4610;50.006;7.490;2023-04-24T07:00:53;9.50;99.90
9151;DHT22;4610;50.006;7.490;2023-04-24T07:03:19;9.40;99.90
9151;DHT22;4610;50.006;7.490;2023-04-24T07:05:48;9.50;99.90
9151;DHT22;4610;50.006;7.490;2023-04-24T07:08:15;9.70;99.90
9151;DHT22;4610;50.006;7.490;2023-04-24T07:10:43;9.70;99.90
9151;DHT22;4610;50.006;7.490;2023-04-24T07:13:10;9.70;99.90
9151;DHT22;4610;50.006;7.490;2023-04-24T07:15:37;9.90;99.90
9151;DHT22;4610;50.006;7.490;2023-04-24T07:18:05;10.00;99.90
9151;DHT22;4610;50.006;7.490;2023-04-24T07:20:32;10.10;99.90
9151;DHT22;4610;50.006;7.490;2023-04-24T07:23:00;10.10;99.90
9151;DHT22;4610;50.006;7.490;2023-04-24T07:25:27;10.10;99.90
9151;DHT22;4610;50.006;7.490;2023-04-24T07:27:54;10.10;99.90
9151;DHT22;4610;50.006;7.490;2023-04-24T07:30:21;10.10;99.90
9151;DHT22;4610;50.006;7.490;2023-04-24T07:32:48;10.20;99.90
9151;DHT22;4610;50.006;7.490;2023-04-24T07:35:14;10.30;99.90
9151;DHT22;4610;50.006;7.490;2023-04-24T07:37:41;10.30;99.90
9151;DHT22;4610;50.006;7.490;2023-04-24T07:40:13;10.30;99.90
9151;DHT22;4610;50.006;7.490;2023-04-24T07:42:40;10.20;99.90
9151;DHT22;4610;50.006;7.490;2023-04-24T07:45:07;10.10;99.90
9151;DHT22;4610;50.006;7.490;2023-04-24T07:47:34;10.00;99.90
9151;DHT22;4610;50.006;7.490;2023-04-24T07:50:02;9.90;99.90
9151;DHT22;4610;50.006;7.490;2023-04-24T07:52:29;9.80;99.90
9151;DHT22;4610;50.006;7.490;2023-04-24T07:54:55;9.70;99.90
9151;DHT22;4610;50.006;7.490;2023-04-24T07:57:27;9.90;99.90
9151;DHT22;4610;50.006;7.490;2023-04-24T07:59:54;10.10;99.90
9151;DHT22;4610;50.006;7.490;2023-04-24T08:02:20;10.20;99.90
9151;DHT22;4610;50.006;7.490;2023-04-24T08:04:51;10.30;99.90
9151;DHT22;4610;50.006;7.490;2023-04-24T08:07:18;10.40;99.90
9151;DHT22;4610;50.006;7.490;2023-04-24T08:09:45;10.40;99.90
9151;DHT22;4610;50.006;7.490;2023-04-24T08:12:12;10.20;99.90
9151;DHT22;4610;50.006;7.490;2023-04-24T08:14:40;10.10;99.90
9151;DHT22;4610;50.006;7.490;2023-04-24T08:17:07;10.00;99.90
9151;DHT22;4610;50.006;7.490;2023-04-24T08:19:34;9.90;99.90
9151;DHT22;4610;50.006;7.490;2023-04-24T08:22:00;9.90;99.90
9151;DHT22;4610;50.006;7.490;2023-04-24T08:24:28;9.90;99.90
9151;DHT22;4610;50.006;7.490;2023-04-24T08:26:55;9.90;99.90
9151;DHT22;4610;50.006;7.490;2023-04-24T08:29:23;9.90;99.90
9151;DHT22;4610;50.006;7.490;2023-04-24T08:31:51;9.90;99.90
9151;DHT22;4610;50.006;7.490;2023-04-24T08:34:19;10.00;99.90
9151;DHT22;4610;50.006;7.490;2023-04-24T08:36:46;9.90;99.90
9151;DHT22;4610;50.006;7.490;2023-04-24T08:39:13;10.00;99.90
9151;DHT22;4610;50.006;7.490;2023-04-24T08:41:41;10.10;99.90
9151;DHT22;4610;50.006;7.490;2023-04-24T08:44:11;10.30;99.90
9151;DHT22;4610;50.006;7.490;2023-04-24T08:46:38;10.90;99.90
9151;DHT22;4610;50.006;7.490;2023-04-24T08:49:07;11.50;99.90
9151;DHT22;4610;50.006;7.490;2023-04-24T08:51:34;12.00;99.90
9151;DHT22;4610;50.006;7.490;2023-04-24T08:54:03;12.20;99.90
9151;DHT22;4610;50.006;7.490;2023-04-24T08:56:33;12.20;99.90
9151;DHT22;4610;50.006;7.490;2023-04-24T08:59:00;11.90;99.90
9151;DHT22;4610;50.006;7.490;2023-04-24T09:01:28;11.60;99.90
9151;DHT22;4610;50.006;7.490;2023-04-24T09:03:55;11.30;99.90
9151;DHT22;4610;50.006;7.490;2023-04-24T09:06:24;11.00;99.90
9151;DHT22;4610;50.006;7.490;2023-04-24T09:08:54;10.90;99.90
9151;DHT22;4610;50.006;7.490;2023-04-24T09:11:21;10.60;99.90
9151;DHT22;4610;50.006;7.490;2023-04-24T09:13:50;10.50;99.90
9151;DHT22;4610;50.006;7.490;2023-04-24T09:16:18;10.50;99.90
9151;DHT22;4610;50.006;7.490;2023-04-24T09:18:46;10.60;99.90
9151;DHT22;4610;50.006;7.490;2023-04-24T09:21:12;10.60;99.90
9151;DHT22;4610;50.006;7.490;2023-04-24T09:23:41;10.60;99.90
9151;DHT22;4610;50.006;7.490;2023-04-24T09:26:09;10.60;99.90
9151;DHT22;4610;50.006;7.490;2023-04-24T09:28:38;10.50;99.90
9151;DHT22;4610;50.006;7.490;2023-04-24T09:31:06;10.40;99.90
9151;DHT22;4610;50.006;7.490;2023-04-24T09:33:34;10.40;99.90
9151;DHT22;4610;50.006;7.490;2023-04-24T09:36:01;10.40;99.90
9151;DHT22;4610;50.006;7.490;2023-04-24T09:38:33;10.40;99.90
9151;DHT22;4610;50.006;7.490;2023-04-24T09:41:02;10.50;99.90
9151;DHT22;4610;50.006;7.490;2023-04-24T09:43:31;10.70;99.90
9151;DHT22;4610;50.006;7.490;2023-04-24T09:45:58;11.00;99.90
9151;DHT22;4610;50.006;7.490;2023-04-24T09:48:33;11.20;99.90
9151;DHT22;4610;50.006;7.490;2023-04-24T09:51:01;11.30;99.90
9151;DHT22;4610;50.006;7.490;2023-04-24T09:53:30;11.70;99.90
9151;DHT22;4610;50.006;7.490;2023-04-24T09:56:06;12.00;99.90
9151;DHT22;4610;50.006;7.490;2023-04-24T09:58:34;12.30;99.90
9151;DHT22;4610;50.006;7.490;2023-04-24T10:01:01;12.50;99.90
9151;DHT22;4610;50.006;7.490;2023-04-24T10:03:30;12.70;99.90
9151;DHT22;4610;50.006;7.490;2023-04-24T10:05:58;12.70;99.90
9151;DHT22;4610;50.006;7.490;2023-04-24T10:08:26;12.50;99.90
9151;DHT22;4610;50.006;7.490;2023-04-24T10:10:59;12.60;99.90
9151;DHT22;4610;50.006;7.490;2023-04-24T10:13:28;13.20;99.90
9151;DHT22;4610;50.006;7.490;2023-04-24T10:15:56;14.00;99.90
9151;DHT22;4610;50.006;7.490;2023-04-24T10:18:26;14.70;99.90
9151;DHT22;4610;50.006;7.490;2023-04-24T10:20:53;14.90;99.90
9151;DHT22;4610;50.006;7.490;2023-04-24T10:23:22;15.10;99.90
9151;DHT22;4610;50.006;7.490;2023-04-24T10:25:49;15.10;99.90
9151;DHT22;4610;50.006;7.490;2023-04-24T10:28:18;15.10;99.90
9151;DHT22;4610;50.006;7.490;2023-04-24T10:30:47;14.80;99.90
9151;DHT22;4610;50.006;7.490;2023-04-24T10:33:16;14.60;99.90
9151;DHT22;4610;50.006;7.490;2023-04-24T10:35:45;14.50;99.90
9151;DHT22;4610;50.006;7.490;2023-04-24T10:38:16;14.80;99.90
9151;DHT22;4610;50.006;7.490;2023-04-24T10:40:45;14.80;99.90
9151;DHT22;4610;50.006;7.490;2023-04-24T10:43:16;14.90;99.90
9151;DHT22;4610;50.006;7.490;2023-04-24T10:46:01;14.50;99.90
9151;DHT22;4610;50.006;7.490;2023-04-24T10:48:29;14.00;99.90
9151;DHT22;4610;50.006;7.490;2023-04-24T10:50:57;13.20;99.90
9151;DHT22;4610;50.006;7.490;2023-04-24T10:53:27;13.20;99.90
9151;DHT22;4610;50.006;7.490;2023-04-24T10:55:58;13.10;99.90
9151;DHT22;4610;50.006;7.490;2023-04-24T10:58:36;13.00;99.90
9151;DHT22;4610;50.006;7.490;2023-04-24T11:01:05;12.80;99.90
9151;DHT22;4610;50.006;7.490;2023-04-24T11:03:33;12.60;99.90
9151;DHT22;4610;50.006;7.490;2023-04-24T11:06:02;12.40;99.90
9151;DHT22;4610;50.006;7.490;2023-04-24T11:08:32;12.60;99.90
9151;DHT22;4610;50.006;7.490;2023-04-24T11:11:02;12.50;99.90
9151;DHT22;4610;50.006;7.490;2023-04-24T11:16:32;12.80;99.90
9151;DHT22;4610;50.006;7.490;2023-04-24T11:19:05;12.90;99.90
9151;DHT22;4610;50.006;7.490;2023-04-24T11:21:39;12.90;99.90
9151;DHT22;4610;50.006;7.490;2023-04-24T11:24:29;12.80;99.90
9151;DHT22;4610;50.006;7.490;2023-04-24T11:26:57;12.60;99.90
9151;DHT22;4610;50.006;7.490;2023-04-24T11:29:42;12.50;99.90
9151;DHT22;4610;50.006;7.490;2023-04-24T11:32:34;12.50;99.90
9151;DHT22;4610;50.006;7.490;2023-04-24T11:35:04;12.40;99.90
9151;DHT22;4610;50.006;7.490;2023-04-24T11:37:34;12.50;99.90
9151;DHT22;4610;50.006;7.490;2023-04-24T11:40:02;12.40;99.90
9151;DHT22;4610;50.006;7.490;2023-04-24T11:42:33;12.20;99.90
9151;DHT22;4610;50.006;7.490;2023-04-24T11:45:00;12.20;99.90
9151;DHT22;4610;50.006;7.490;2023-04-24T11:47:28;12.20;99.90
9151;DHT22;4610;50.006;7.490;2023-04-24T11:49:57;12.20;99.90
9151;DHT22;4610;50.006;7.490;2023-04-24T11:52:24;12.40;99.90
9151;DHT22;4610;50.006;7.490;2023-04-24T11:54:51;12.70;99.90
9151;DHT22;4610;50.006;7.490;2023-04-24T11:57:19;13.10;99.90
9151;DHT22;4610;50.006;7.490;2023-04-24T11:59:47;13.30;99.90
9151;DHT22;4610;50.006;7.490;2023-04-24T12:02:23;13.80;99.90
9151;DHT22;4610;50.006;7.490;2023-04-24T12:04:51;14.00;99.90
9151;DHT22;4610;50.006;7.490;2023-04-24T12:07:19;14.20;99.90
9151;DHT22;4610;50.006;7.490;2023-04-24T12:09:49;14.10;99.90
9151;DHT22;4610;50.006;7.490;2023-04-24T12:12:17;13.50;99.90
9151;DHT22;4610;50.006;7.490;2023-04-24T12:14:46;13.10;99.90
9151;DHT22;4610;50.006;7.490;2023-04-24T12:17:14;12.90;99.90
9151;DHT22;4610;50.006;7.490;2023-04-24T12:19:45;12.70;99.90
9151;DHT22;4610;50.006;7.490;2023-04-24T12:22:13;12.60;99.90
9151;DHT22;4610;50.006;7.490;2023-04-24T12:24:56;12.50;99.90
9151;DHT22;4610;50.006;7.490;2023-04-24T12:27:23;12.60;99.90
9151;DHT22;4610;50.006;7.490;2023-04-24T12:29:53;12.70;99.90
9151;DHT22;4610;50.006;7.490;2023-04-24T12:32:21;13.00;99.90
9151;DHT22;4610;50.006;7.490;2023-04-24T12:34:49;13.20;99.90
9151;DHT22;4610;50.006;7.490;2023-04-24T12:37:17;13.30;99.90
9151;DHT22;4610;50.006;7.490;2023-04-24T12:39:59;13.30;99.90
9151;DHT22;4610;50.006;7.490;2023-04-24T12:42:27;13.20;99.90
9151;DHT22;4610;50.006;7.490;2023-04-24T12:44:57;13.00;99.90
9151;DHT22;4610;50.006;7.490;2023-04-24T12:47:25;12.90;99.90
9151;DHT22;4610;50.006;7.490;2023-04-24T12:49:52;12.80;99.90
9151;DHT22;4610;50.006;7.490;2023-04-24T12:52:18;12.60;99.90
9151;DHT22;4610;50.006;7.490;2023-04-24T12:54:46;12.50;99.90
9151;DHT22;4610;50.006;7.490;2023-04-24T12:57:14;12.60;99.90
9151;DHT22;4610;50.006;7.490;2023-04-24T12:59:41;12.40;99.90
9151;DHT22;4610;50.006;7.490;2023-04-24T13:02:09;12.30;99.90
9151;DHT22;4610;50.006;7.490;2023-04-24T13:04:35;12.20;99.90
9151;DHT22;4610;50.006;7.490;2023-04-24T13:07:02;12.10;99.90
9151;DHT22;4610;50.006;7.490;2023-04-24T13:09:30;12.00;99.90
9151;DHT22;4610;50.006;7.490;2023-04-24T13:11:57;12.00;99.90
9151;DHT22;4610;50.006;7.490;2023-04-24T13:14:25;12.00;99.90
9151;DHT22;4610;50.006;7.490;2023-04-24T13:16:52;12.00;99.90
9151;DHT22;4610;50.006;7.490;2023-04-24T13:19:18;12.20;99.90
9151;DHT22;4610;50.006;7.490;2023-04-24T13:21:45;12.60;99.90
9151;DHT22;4610;50.006;7.490;2023-04-24T13:24:12;12.80;99.90
9151;DHT22;4610;50.006;7.490;2023-04-24T13:26:41;13.00;99.90
9151;DHT22;4610;50.006;7.490;2023-04-24T13:29:08;13.30;99.90
9151;DHT22;4610;50.006;7.490;2023-04-24T13:31:36;13.30;99.90
9151;DHT22;4610;50.006;7.490;2023-04-24T13:34:03;13.40;99.90
9151;DHT22;4610;50.006;7.490;2023-04-24T13:36:30;12.90;99.90
9151;DHT22;4610;50.006;7.490;2023-04-24T13:38:57;12.90;99.90
9151;DHT22;4610;50.006;7.490;2023-04-24T13:41:24;12.90;99.90
9151;DHT22;4610;50.006;7.490;2023-04-24T13:43:50;13.00;99.90
9151;DHT22;4610;50.006;7.490;2023-04-24T13:46:17;13.10;99.90
9151;DHT22;4610;50.006;7.490;2023-04-24T13:48:45;13.20;99.90
9151;DHT22;4610;50.006;7.490;2023-04-24T13:51:12;13.40;99.90
9151;DHT22;4610;50.006;7.490;2023-04-24T13:53:39;13.60;99.90
9151;DHT22;4610;50.006;7.490;2023-04-24T13:56:06;13.70;99.90
9151;DHT22;4610;50.006;7.490;2023-04-24T13:58:33;13.90;99.90
9151;DHT22;4610;50.006;7.490;2023-04-24T14:01:00;13.90;99.90
9151;DHT22;4610;50.006;7.490;2023-04-24T14:03:26;13.80;99.90
9151;DHT22;4610;50.006;7.490;2023-04-24T14:05:54;13.70;99.90
9151;DHT22;4610;50.006;7.490;2023-04-24T14:08:21;13.50;99.90
9151;DHT22;4610;50.006;7.490;2023-04-24T14:10:48;13.30;99.90
9151;DHT22;4610;50.006;7.490;2023-04-24T14:13:16;13.10;99.90
9151;DHT22;4610;50.006;7.490;2023-04-24T14:15:43;13.00;99.90
9151;DHT22;4610;50.006;7.490;2023-04-24T14:18:09;12.90;99.90
9151;DHT22;4610;50.006;7.490;2023-04-24T14:20:36;12.90;99.90
9151;DHT22;4610;50.006;7.490;2023-04-24T14:23:04;13.00;99.90
9151;DHT22;4610;50.006;7.490;2023-04-24T14:25:31;13.10;99.90
9151;DHT22;4610;50.006;7.490;2023-04-24T14:27:58;13.20;99.90
9151;DHT22;4610;50.006;7.490;2023-04-24T14:30:25;13.30;99.90
9151;DHT22;4610;50.006;7.490;2023-04-24T14:32:52;13.40;99.90
9151;DHT22;4610;50.006;7.490;2023-04-24T14:35:19;13.40;99.90
9151;DHT22;4610;50.006;7.490;2023-04-24T14:37:45;13.50;99.90
9151;DHT22;4610;50.006;7.490;2023-04-24T14:40:15;13.40;99.90
9151;DHT22;4610;50.006;7.490;2023-04-24T14:42:42;13.20;99.90
9151;DHT22;4610;50.006;7.490;2023-04-24T14:45:09;13.00;99.90
9151;DHT22;4610;50.006;7.490;2023-04-24T14:47:36;13.00;99.90
9151;DHT22;4610;50.006;7.490;2023-04-24T14:50:04;13.50;99.90
9151;DHT22;4610;50.006;7.490;2023-04-24T14:52:31;13.90;99.90
9151;DHT22;4610;50.006;7.490;2023-04-24T14:54:58;13.40;99.90
9151;DHT22;4610;50.006;7.490;2023-04-24T14:57:26;13.30;99.90
9151;DHT22;4610;50.006;7.490;2023-04-24T14:59:53;13.10;99.90
9151;DHT22;4610;50.006;7.490;2023-04-24T15:02:19;13.00;99.90
9151;DHT22;4610;50.006;7.490;2023-04-24T15:04:46;12.80;99.90
9151;DHT22;4610;50.006;7.490;2023-04-24T15:07:13;12.70;99.90
9151;DHT22;4610;50.006;7.490;2023-04-24T15:09:40;12.60;99.90
9151;DHT22;4610;50.006;7.490;2023-04-24T15:12:08;12.50;99.90
9151;DHT22;4610;50.006;7.490;2023-04-24T15:14:36;12.40;99.90
9151;DHT22;4610;50.006;7.490;2023-04-24T15:17:03;12.40;99.90
9151;DHT22;4610;50.006;7.490;2023-04-24T15:19:31;12.50;99.90
9151;DHT22;4610;50.006;7.490;2023-04-24T15:21:57;12.40;99.90
9151;DHT22;4610;50.006;7.490;2023-04-24T15:24:24;12.30;99.90
9151;DHT22;4610;50.006;7.490;2023-04-24T15:26:51;12.30;99.90
9151;DHT22;4610;50.006;7.490;2023-04-24T15:29:18;12.30;99.90
9151;DHT22;4610;50.006;7.490;2023-04-24T15:31:46;12.30;99.90
9151;DHT22;4610;50.006;7.490;2023-04-24T15:34:13;12.40;99.90
9151;DHT22;4610;50.006;7.490;2023-04-24T15:36:39;12.30;99.90
9151;DHT22;4610;50.006;7.490;2023-04-24T15:39:06;12.20;99.90
9151;DHT22;4610;50.006;7.490;2023-04-24T15:41:35;12.20;99.90
9151;DHT22;4610;50.006;7.490;2023-04-24T15:44:02;12.20;99.90
9151;DHT22;4610;50.006;7.490;2023-04-24T15:46:29;12.30;99.90
9151;DHT22;4610;50.006;7.490;2023-04-24T15:48:57;12.50;99.90
9151;DHT22;4610;50.006;7.490;2023-04-24T15:51:24;12.70;99.90
9151;DHT22;4610;50.006;7.490;2023-04-24T15:53:50;12.80;99.90
9151;DHT22;4610;50.006;7.490;2023-04-24T15:56:17;12.90;99.90
9151;DHT22;4610;50.006;7.490;2023-04-24T15:58:45;12.70;99.90
9151;DHT22;4610;50.006;7.490;2023-04-24T16:01:12;12.50;99.90
9151;DHT22;4610;50.006;7.490;2023-04-24T16:03:38;12.30;99.90
9151;DHT22;4610;50.006;7.490;2023-04-24T16:06:07;12.20;99.90
9151;DHT22;4610;50.006;7.490;2023-04-24T16:08:34;12.20;99.90
9151;DHT22;4610;50.006;7.490;2023-04-24T16:11:00;12.20;99.90
9151;DHT22;4610;50.006;7.490;2023-04-24T16:13:27;12.00;99.90